createdAt,value
2018-02-22T00:02:29.135Z,79.18
2018-02-22T00:05:00.245Z,82.10
2018-02-22T00:07:31.500Z,78.55
2018-02-22T00:10:02.591Z,77.77
2018-02-22T00:12:33.331Z,74.62
2018-02-22T00:15:04.522Z,83.13
2018-02-22T00:17:35.250Z,79.97
2018-02-22T00:20:05.657Z,77.65
2018-02-22T00:22:36.644Z,84.43
2018-02-22T00:25:07.760Z,80.60
2018-02-22T00:27:39.082Z,77.75
2018-02-22T00:30:10.825Z,83.12
2018-02-22T00:32:41.233Z,81.00
2018-02-22T00:35:12.271Z,87.22
2018-02-22T00:37:43.296Z,78.20
2018-02-22T00:40:14.418Z,82.72
2018-02-22T00:42:45.378Z,80.80
2018-02-22T00:45:16.455Z,82.43
2018-02-22T00:47:48.030Z,83.80
2018-02-22T00:50:20.178Z,87.70
2018-02-22T00:52:51.937Z,84.93
2018-02-22T00:55:23.486Z,86.87
2018-02-22T00:57:54.650Z,83.97
2018-02-22T01:00:26.433Z,81.63
2018-02-22T01:02:57.198Z,98.37
2018-02-22T01:05:28.078Z,78.25
2018-02-22T01:07:59.051Z,80.97
2018-02-22T01:10:29.524Z,86.93
2018-02-22T01:13:00.078Z,85.95
2018-02-22T01:15:31.181Z,87.50
2018-02-22T01:18:01.967Z,85.60
2018-02-22T01:20:32.886Z,91.90
2018-02-22T01:23:04.322Z,92.37
2018-02-22T01:25:35.026Z,90.82
2018-02-22T01:28:06.050Z,85.55
2018-02-22T01:30:36.781Z,86.25
2018-02-22T01:33:07.759Z,81.10
2018-02-22T01:35:38.822Z,85.25
2018-02-22T01:38:09.276Z,96.10
2018-02-22T01:40:40.235Z,92.30
2018-02-22T01:43:11.356Z,79.28
2018-02-22T01:45:42.261Z,81.87
2018-02-22T01:48:12.634Z,82.28
2018-02-22T01:50:47.029Z,85.72
2018-02-22T01:53:18.201Z,88.95
2018-02-22T01:55:48.746Z,93.85
2018-02-22T01:58:20.262Z,80.12
2018-02-22T02:00:50.877Z,83.80
2018-02-22T02:03:21.349Z,77.85
2018-02-22T02:05:52.515Z,90.60
2018-02-22T02:08:23.377Z,78.68
2018-02-22T02:10:54.592Z,74.53
2018-02-22T02:13:25.578Z,83.62
2018-02-22T02:15:56.381Z,77.62
2018-02-22T02:18:26.866Z,74.20
2018-02-22T02:20:57.658Z,81.80
2018-02-22T02:23:28.340Z,82.45
2018-02-22T02:27:23.464Z,74.57
2018-02-22T02:29:54.182Z,64.45
2018-02-22T02:32:24.485Z,74.30
2018-02-22T02:34:55.719Z,67.57
2018-02-22T02:37:26.183Z,67.65
2018-02-22T02:39:57.386Z,64.22
2018-02-22T02:42:28.966Z,63.80
2018-02-22T02:44:59.712Z,59.63
2018-02-22T02:47:30.449Z,65.00
2018-02-22T02:50:00.663Z,62.20
2018-02-22T02:52:31.027Z,60.77
2018-02-22T02:55:01.968Z,62.47
2018-02-22T02:57:32.908Z,63.83
2018-02-22T03:00:03.326Z,59.47
2018-02-22T03:02:34.214Z,58.28
2018-02-22T03:05:04.979Z,59.17
2018-02-22T03:07:35.802Z,56.90
2018-02-22T03:10:06.866Z,61.85
2018-02-22T03:12:37.961Z,59.40
2018-02-22T03:15:09.709Z,57.85
2018-02-22T03:17:41.450Z,53.13
2018-02-22T03:20:12.012Z,52.20
2018-02-22T03:22:42.889Z,52.62
2018-02-22T03:25:13.419Z,53.10
2018-02-22T03:27:44.121Z,56.07
2018-02-22T03:30:14.834Z,58.42
2018-02-22T03:32:45.362Z,56.70
2018-02-22T03:35:15.895Z,51.65
2018-02-22T03:37:46.423Z,54.77
2018-02-22T03:40:16.789Z,52.05
2018-02-22T03:42:47.327Z,58.90
2018-02-22T03:45:18.035Z,56.80
2018-02-22T03:47:48.624Z,47.35
2018-02-22T03:50:19.870Z,54.43
2018-02-22T03:52:52.056Z,56.57
2018-02-22T03:55:22.667Z,50.17
2018-02-22T03:57:53.416Z,57.10
2018-02-22T04:00:27.091Z,52.10
2018-02-22T04:02:57.745Z,52.35
2018-02-22T04:05:29.676Z,53.00
2018-02-22T04:08:01.212Z,58.20
2018-02-22T04:10:35.631Z,53.05
2018-02-22T04:13:06.488Z,53.90
2018-02-22T04:15:37.458Z,49.92
2018-02-22T04:18:08.088Z,53.40
2018-02-22T04:20:38.601Z,54.75
2018-02-22T04:23:09.069Z,50.28
2018-02-22T04:25:39.704Z,48.45
2018-02-22T04:28:10.953Z,56.40
2018-02-22T04:30:41.282Z,50.42
2018-02-22T04:33:11.932Z,51.20
2018-02-22T04:35:42.232Z,52.03
2018-02-22T04:38:13.678Z,51.27
2018-02-22T04:40:46.494Z,50.00
2018-02-22T04:43:20.922Z,55.03
2018-02-22T04:45:51.605Z,55.10
2018-02-22T04:48:23.248Z,54.50
2018-02-22T04:50:54.837Z,53.30
2018-02-22T04:53:25.884Z,54.92
2018-02-22T04:55:56.239Z,61.22
2018-02-22T04:58:27.252Z,57.85
2018-02-22T05:00:57.480Z,51.60
2018-02-22T05:03:27.744Z,47.20
2018-02-22T05:05:58.109Z,50.35
2018-02-22T05:08:28.456Z,59.57
2018-02-22T05:10:58.783Z,49.88
2018-02-22T05:13:29.059Z,54.60
2018-02-22T05:15:59.615Z,55.90
2018-02-22T05:18:29.989Z,49.80
2018-02-22T05:21:01.163Z,53.65
2018-02-22T05:23:31.783Z,47.75
2018-02-22T05:26:02.751Z,53.80
2018-02-22T05:28:33.332Z,54.08
2018-02-22T05:31:06.675Z,58.55
2018-02-22T05:33:37.918Z,59.85
2018-02-22T05:36:09.612Z,54.83
2018-02-22T05:38:40.080Z,54.07
2018-02-22T05:41:11.596Z,57.90
2018-02-22T05:43:42.477Z,56.85
2018-02-22T05:46:13.591Z,55.47
2018-02-22T05:48:46.950Z,53.80
2018-02-22T05:51:18.739Z,57.20
2018-02-22T05:53:49.390Z,57.67
2018-02-22T05:56:20.327Z,55.15
2018-02-22T05:58:50.964Z,52.37
2018-02-22T06:01:41.248Z,56.60
2018-02-22T06:04:12.540Z,57.50
2018-02-22T06:06:43.342Z,63.93
2018-02-22T06:09:16.391Z,62.05
2018-02-22T06:11:56.042Z,56.27
2018-02-22T06:14:29.079Z,56.78
2018-02-22T06:17:01.748Z,54.45
2018-02-22T06:19:32.376Z,57.83
2018-02-22T06:22:04.249Z,52.05
2018-02-22T06:24:36.020Z,53.50
2018-02-22T06:27:06.519Z,55.12
2018-02-22T06:29:48.262Z,51.17
2018-02-22T06:32:21.403Z,53.30
2018-02-22T06:35:31.363Z,58.37
2018-02-22T06:38:03.595Z,59.65
2018-02-22T06:40:34.879Z,60.65
2018-02-22T06:44:33.695Z,55.20
2018-02-22T06:47:04.739Z,55.60
2018-02-22T06:49:44.509Z,51.00
2018-02-22T06:52:18.515Z,51.97
2018-02-22T06:54:49.992Z,58.33
2018-02-22T06:57:25.678Z,54.20
2018-02-22T07:00:00.663Z,55.17
2018-02-22T07:02:31.489Z,54.07
2018-02-22T07:05:16.988Z,55.10
2018-02-22T07:07:48.654Z,57.83
2018-02-22T07:10:21.013Z,57.80
2018-02-22T07:12:52.248Z,52.93
2018-02-22T07:15:25.806Z,59.72
2018-02-22T07:18:05.430Z,52.45
2018-02-22T07:20:39.599Z,51.47
2018-02-22T07:23:16.789Z,55.23
2018-02-22T07:25:43.589Z,58.92
2018-02-22T07:28:14.407Z,51.55
2018-02-22T07:30:48.083Z,54.33
2018-02-22T07:33:23.296Z,50.90
2018-02-22T07:35:55.793Z,59.50
2018-02-22T07:38:27.308Z,55.53
2018-02-22T07:40:59.636Z,55.90
2018-02-22T07:43:31.010Z,47.75
2018-02-22T07:46:04.568Z,57.65
2018-02-22T07:48:40.944Z,58.65
2018-02-22T07:51:44.224Z,56.63
2018-02-22T07:54:27.528Z,56.10
2018-02-22T07:56:58.769Z,54.30
2018-02-22T07:59:29.704Z,54.60
2018-02-22T08:02:00.443Z,56.22
2018-02-22T08:04:36.677Z,51.77
2018-02-22T08:07:11.877Z,53.40
2018-02-22T08:09:43.800Z,58.95
2018-02-22T08:12:14.772Z,55.63
2018-02-22T08:14:50.614Z,55.67
2018-02-22T08:17:26.517Z,53.33
2018-02-22T08:20:01.759Z,57.85
2018-02-22T08:22:32.776Z,54.42
2018-02-22T08:25:06.281Z,56.25
2018-02-22T08:27:38.488Z,54.03
2018-02-22T08:30:10.005Z,53.13
2018-02-22T08:32:56.420Z,53.10
2018-02-22T08:35:32.488Z,54.65
2018-02-22T08:38:03.408Z,55.20
2018-02-22T08:40:34.231Z,53.90
2018-02-22T08:43:10.304Z,53.97
2018-02-22T08:45:42.828Z,54.08
2018-02-22T08:48:18.916Z,53.60
2018-02-22T08:50:50.853Z,57.70
2018-02-22T08:53:21.531Z,51.88
2018-02-22T08:55:52.864Z,60.25
2018-02-22T08:58:32.407Z,51.30
2018-02-22T09:01:04.023Z,55.60
2018-02-22T09:03:36.129Z,60.10
2018-02-22T09:06:07.494Z,54.20
2018-02-22T09:08:39.229Z,56.92
2018-02-22T09:11:09.820Z,52.22
2018-02-22T09:14:25.806Z,53.92
2018-02-22T09:16:58.774Z,52.25
2018-02-22T09:19:30.305Z,58.30
2018-02-22T09:22:06.372Z,56.60
2018-02-22T09:24:37.959Z,56.55
2018-02-22T09:27:08.445Z,58.92
2018-02-22T09:29:40.252Z,55.70
2018-02-22T09:32:11.099Z,61.58
2018-02-22T09:34:41.872Z,54.40
2018-02-22T09:37:13.167Z,58.78
2018-02-22T09:39:43.596Z,57.72
2018-02-22T09:42:42.805Z,52.08
2018-02-22T09:45:19.835Z,55.08
2018-02-22T09:47:53.831Z,57.90
2018-02-22T09:50:26.387Z,54.65
2018-02-22T09:53:01.568Z,57.50
2018-02-22T09:55:32.192Z,59.47
2018-02-22T09:58:02.743Z,55.80
2018-02-22T10:00:34.349Z,56.37
2018-02-22T10:03:05.999Z,61.20
2018-02-22T10:05:37.413Z,59.30
2018-02-22T10:08:09.656Z,61.65
2018-02-22T10:10:42.039Z,62.72
2018-02-22T10:13:13.133Z,54.17
2018-02-22T10:15:50.440Z,65.60
2018-02-22T10:18:23.300Z,62.43
2018-02-22T10:20:58.923Z,64.17
2018-02-22T10:23:30.473Z,61.75
2018-02-22T10:26:01.308Z,63.15
2018-02-22T10:28:32.388Z,59.60
2018-02-22T10:31:10.715Z,60.50
2018-02-22T10:33:42.118Z,56.70
2018-02-22T10:36:13.772Z,59.63
2018-02-22T10:38:45.530Z,58.83
2018-02-22T10:45:01.304Z,68.30
2018-02-22T10:47:33.010Z,65.73
2018-02-22T10:50:09.448Z,59.00
2018-02-22T10:53:10.653Z,64.17
2018-02-22T10:55:41.739Z,63.63
2018-02-22T10:58:13.363Z,65.87
2018-02-22T11:00:50.137Z,65.72
2018-02-22T11:03:22.410Z,64.85
2018-02-22T11:06:03.327Z,63.13
2018-02-22T11:08:55.106Z,58.40
2018-02-22T11:11:28.810Z,60.60
2018-02-22T11:14:31.054Z,61.50
2018-02-22T11:17:03.630Z,66.55
2018-02-22T11:19:44.114Z,61.80
2018-02-22T11:22:14.718Z,61.80
2018-02-22T11:24:47.333Z,61.70
2018-02-22T11:27:23.284Z,56.40
2018-02-22T11:29:53.999Z,67.30
2018-02-22T11:32:27.539Z,52.92
2018-02-22T11:35:01.636Z,55.40
2018-02-22T11:37:33.524Z,63.87
2018-02-22T11:40:30.345Z,56.55
2018-02-22T11:43:00.884Z,55.10
2018-02-22T11:45:31.157Z,55.15
2018-02-22T12:32:04.444Z,57.10
2018-02-22T12:34:35.326Z,62.85
2018-02-22T12:37:30.538Z,49.58
2018-02-22T12:43:23.776Z,53.53
2018-02-22T12:45:55.138Z,54.40
2018-02-22T12:48:27.851Z,53.15
2018-02-22T12:50:59.079Z,56.75
2018-02-22T12:53:56.737Z,55.33
2018-02-22T12:56:28.764Z,58.45
2018-02-22T12:59:01.218Z,51.43
2018-02-22T13:01:32.349Z,54.50
2018-02-22T13:04:05.067Z,51.72
2018-02-22T13:07:20.582Z,59.83
2018-02-22T13:09:51.264Z,55.00
2018-02-22T13:12:22.771Z,59.53
2018-02-22T13:15:11.471Z,54.33
2018-02-22T13:17:44.463Z,54.83
2018-02-22T13:20:23.425Z,54.75
2018-02-22T13:22:57.413Z,56.97
2018-02-22T13:25:28.432Z,53.50
2018-02-22T13:28:03.048Z,50.42
2018-02-22T13:30:33.731Z,50.88
2018-02-22T13:34:13.702Z,54.20
2018-02-22T13:36:51.933Z,59.28
2018-02-22T13:39:26.771Z,51.63
2018-02-22T13:41:58.015Z,51.53
2018-02-22T13:44:39.932Z,55.03
2018-02-22T13:50:57.176Z,48.47
2018-02-22T13:53:27.765Z,51.40
2018-02-22T13:55:59.173Z,53.20
2018-02-22T13:58:32.623Z,53.60
2018-02-22T14:02:24.317Z,57.87
2018-02-22T14:04:55.228Z,52.60
2018-02-22T14:07:31.410Z,52.70
2018-02-22T14:10:18.576Z,46.78
2018-02-22T14:16:14.475Z,50.53
2018-02-22T14:18:45.435Z,45.50
2018-02-22T14:21:17.627Z,47.38
2018-02-22T14:23:48.340Z,46.30
2018-02-22T14:26:57.156Z,50.72
2018-02-22T14:29:28.739Z,48.13
2018-02-22T14:32:00.143Z,49.38
2018-02-22T14:34:32.728Z,49.97
2018-02-22T14:37:09.955Z,49.60
2018-02-22T14:39:42.307Z,51.30
2018-02-22T14:42:35.027Z,48.85
2018-02-22T14:45:06.497Z,52.62
2018-02-22T14:47:38.541Z,51.67
2018-02-22T14:50:11.021Z,50.00
2018-02-22T14:52:44.657Z,55.28
2018-02-22T14:55:15.521Z,50.63
2018-02-22T14:57:52.572Z,53.63
2018-02-22T15:00:25.904Z,49.97
2018-02-22T15:03:37.589Z,52.28
2018-02-22T15:06:12.264Z,47.33
2018-02-22T15:08:43.793Z,49.20
2018-02-22T15:11:14.767Z,52.00
2018-02-22T15:13:49.839Z,56.13
2018-02-22T15:16:29.036Z,51.50
2018-02-22T15:19:01.428Z,53.78
2018-02-22T15:21:46.357Z,47.00
2018-02-22T15:24:19.529Z,48.85
2018-02-22T15:26:50.791Z,49.53
2018-02-22T15:30:01.253Z,51.92
2018-02-22T15:32:32.859Z,53.25
2018-02-22T15:35:05.759Z,50.78
2018-02-22T15:37:46.584Z,57.65
2018-02-22T15:40:18.473Z,55.08
2018-02-22T15:42:54.322Z,52.92
2018-02-22T15:45:25.222Z,57.62
2018-02-22T15:47:56.217Z,54.75
2018-02-22T15:50:29.103Z,58.97
2018-02-22T15:53:13.667Z,54.13
2018-02-22T15:59:52.236Z,57.97
2018-02-22T16:02:24.265Z,56.60
2018-02-22T16:04:56.303Z,57.70
2018-02-22T16:07:33.686Z,59.90
2018-02-22T16:10:05.801Z,55.40
2018-02-22T16:12:37.119Z,55.17
2018-02-22T16:15:10.567Z,67.32
2018-02-22T16:17:42.473Z,54.42
2018-02-22T16:20:23.103Z,61.78
2018-02-22T16:22:54.682Z,62.17
2018-02-22T16:25:36.620Z,59.43
2018-02-22T16:28:07.190Z,59.63
2018-02-22T16:30:38.582Z,63.17
2018-02-22T16:33:09.820Z,59.97
2018-02-22T16:35:43.133Z,60.80
2018-02-22T16:38:14.377Z,63.75
2018-02-22T16:40:58.358Z,64.10
2018-02-22T16:43:32.983Z,60.90
2018-02-22T16:46:04.842Z,66.18
2018-02-22T16:48:35.957Z,60.85
2018-02-22T16:51:07.473Z,65.78
2018-02-22T16:53:52.279Z,63.03
2018-02-22T16:56:26.491Z,60.30
2018-02-22T16:58:58.962Z,61.67
2018-02-22T17:01:29.397Z,55.73
2018-02-22T17:04:00.111Z,61.80
2018-02-22T17:06:40.145Z,60.10
2018-02-22T17:09:13.695Z,66.20
2018-02-22T17:11:46.620Z,61.60
2018-02-22T17:14:17.031Z,60.83
2018-02-22T17:16:58.925Z,57.28
2018-02-22T17:19:36.265Z,62.22
2018-02-22T17:22:09.193Z,63.20
2018-02-22T17:24:43.302Z,60.20
2018-02-22T17:27:27.316Z,64.62
2018-02-22T17:30:04.543Z,67.80
2018-02-22T17:32:42.113Z,64.80
2018-02-22T17:35:55.551Z,68.00
2018-02-22T17:38:28.700Z,63.33
2018-02-22T17:41:02.725Z,67.47
2018-02-22T17:47:10.052Z,66.30
2018-02-22T17:49:41.555Z,61.85
2018-02-22T17:52:13.843Z,67.35
2018-02-22T17:54:44.698Z,74.87
2018-02-22T17:57:22.910Z,74.07
2018-02-22T17:59:55.049Z,70.93
2018-02-22T18:02:26.355Z,64.20
2018-02-22T18:04:57.906Z,65.47
2018-02-22T18:07:29.915Z,67.00
2018-02-22T18:10:01.425Z,58.30
2018-02-22T18:12:33.100Z,74.45
2018-02-22T18:15:05.144Z,66.33
2018-02-22T18:17:36.473Z,68.87
2018-02-22T18:20:11.322Z,64.63
2018-02-22T18:22:43.983Z,66.73
2018-02-22T18:25:23.012Z,72.30
2018-02-22T18:27:56.599Z,71.13
2018-02-22T18:30:36.000Z,70.07
2018-02-22T18:33:08.315Z,63.50
2018-02-22T18:35:40.224Z,68.30
2018-02-22T18:38:11.928Z,62.05
2018-02-22T18:40:47.145Z,73.05
2018-02-22T18:43:22.019Z,69.93
2018-02-22T18:45:52.693Z,70.55
2018-02-22T18:48:24.710Z,70.55
2018-02-22T18:50:55.947Z,69.53
2018-02-22T18:53:31.549Z,65.57
2018-02-22T18:56:10.757Z,65.15
2018-02-22T18:58:42.802Z,62.80
2018-02-22T19:01:32.659Z,65.32
2018-02-22T19:04:03.184Z,67.50
2018-02-22T19:06:41.233Z,66.93
2018-02-22T19:09:14.168Z,72.80
2018-02-22T19:11:44.784Z,62.50
2018-02-22T19:14:15.872Z,61.13
2018-02-22T19:16:47.549Z,63.13
2018-02-22T19:19:23.730Z,68.47
2018-02-22T19:21:54.506Z,63.13
2018-02-22T19:24:25.724Z,67.72
2018-02-22T19:26:57.390Z,68.35
2018-02-22T19:29:29.528Z,68.97
2018-02-22T19:32:00.312Z,65.37
2018-02-22T19:34:31.556Z,64.17
2018-02-22T19:37:01.992Z,64.17
2018-02-22T19:39:35.723Z,63.05
2018-02-22T19:42:07.076Z,65.40
2018-02-22T19:44:38.349Z,70.18
2018-02-22T19:47:10.372Z,63.03
2018-02-22T19:49:42.225Z,58.03
2018-02-22T19:52:14.537Z,68.22
2018-02-22T19:54:47.668Z,65.70
2018-02-22T19:57:18.732Z,60.08
2018-02-22T19:59:49.280Z,63.30
2018-02-22T20:02:19.913Z,66.27
2018-02-22T20:04:51.528Z,64.65
2018-02-22T20:07:22.215Z,68.07
2018-02-22T20:09:53.240Z,65.18
2018-02-22T20:12:24.345Z,66.15
2018-02-22T20:14:55.228Z,66.43
2018-02-22T20:17:26.233Z,65.40
2018-02-22T20:19:57.913Z,64.60
2018-02-22T20:22:28.672Z,65.93
2018-02-22T20:24:59.429Z,67.30
2018-02-22T20:27:33.467Z,65.35
2018-02-22T20:30:05.442Z,67.90
2018-02-22T20:32:36.775Z,65.25
2018-02-22T20:35:07.451Z,70.15
2018-02-22T20:37:38.721Z,67.50
2018-02-22T20:40:09.734Z,70.40
2018-02-22T20:42:42.556Z,66.93
2018-02-22T20:45:13.633Z,63.97
2018-02-22T20:47:44.563Z,65.10
2018-02-22T20:50:16.850Z,68.70
2018-02-22T20:52:47.430Z,61.15
2018-02-22T20:55:18.092Z,58.87
2018-02-22T20:58:02.108Z,73.73
2018-02-22T21:00:34.336Z,65.97
2018-02-22T21:03:19.804Z,70.60
2018-02-22T21:05:51.683Z,57.97
2018-02-22T21:08:22.719Z,63.77
2018-02-22T21:10:53.482Z,70.15
2018-02-22T21:13:24.839Z,62.88
2018-02-22T21:15:56.049Z,70.83
2018-02-22T21:18:26.641Z,63.30
2018-02-22T21:20:58.261Z,65.37
2018-02-22T21:23:29.107Z,68.45
2018-02-22T21:25:59.409Z,64.10
2018-02-22T21:28:32.184Z,62.17
2018-02-22T21:31:05.740Z,71.35
2018-02-22T21:33:36.608Z,66.90
2018-02-22T21:36:07.261Z,64.18
2018-02-22T21:38:39.873Z,64.90
2018-02-22T21:41:10.644Z,61.20
2018-02-22T21:43:41.077Z,68.07
2018-02-22T21:46:11.796Z,63.63
2018-02-22T21:48:42.828Z,65.87
2018-02-22T21:51:14.973Z,73.40
2018-02-22T21:53:46.579Z,68.70
2018-02-22T21:56:17.411Z,63.15
2018-02-22T21:58:48.828Z,65.65
2018-02-22T22:01:20.551Z,68.68
2018-02-22T22:03:51.953Z,59.97
2018-02-22T22:06:23.368Z,64.95
2018-02-22T22:08:54.687Z,71.00
2018-02-22T22:11:42.780Z,62.85
2018-02-22T22:14:13.907Z,67.45
2018-02-22T22:16:48.174Z,68.67
2018-02-22T22:19:19.577Z,69.82
2018-02-22T22:21:51.272Z,67.43
2018-02-22T22:24:22.357Z,69.83
2018-02-22T22:27:23.799Z,69.20
2018-02-22T22:30:33.921Z,65.87
2018-02-22T22:33:48.096Z,67.32
2018-02-22T22:37:06.476Z,67.57
2018-02-22T22:40:19.194Z,65.97
2018-02-22T22:43:29.448Z,64.18
2018-02-22T22:46:39.809Z,61.13
2018-02-22T22:53:20.092Z,64.30
2018-02-22T22:56:29.716Z,62.15
2018-02-22T22:59:40.684Z,64.10
2018-02-22T23:02:49.953Z,67.68
2018-02-22T23:05:58.092Z,64.78
2018-02-22T23:09:06.102Z,62.28
2018-02-22T23:12:20.228Z,59.33
2018-02-22T23:15:28.188Z,62.00
2018-02-22T23:18:37.641Z,62.72
2018-02-22T23:21:47.634Z,58.70
2018-02-22T23:24:57.950Z,57.22
2018-02-22T23:28:07.159Z,57.03
2018-02-22T23:31:16.440Z,67.30
2018-02-22T23:34:24.680Z,62.25
2018-02-22T23:37:35.348Z,59.92
2018-02-22T23:40:43.348Z,67.68
2018-02-22T23:43:52.648Z,58.28
2018-02-22T23:47:01.784Z,62.07
2018-02-22T23:50:12.195Z,56.45
2018-02-22T23:52:50.072Z,52.53
2018-02-22T23:55:21.148Z,55.30
2018-02-22T23:57:51.757Z,55.53
